createdAt,value
2023-01-08T00:02:41.882Z,82.30
2023-01-08T00:05:43.790Z,82.20
2023-01-08T00:08:46.263Z,82.50
2023-01-08T00:11:48.177Z,82.70
2023-01-08T00:14:50.140Z,83.50
2023-01-08T00:17:52.043Z,84.00
2023-01-08T00:20:56.395Z,84.40
2023-01-08T00:23:58.378Z,84.50
2023-01-08T00:27:00.215Z,83.80
2023-01-08T00:30:02.196Z,83.10
2023-01-08T00:33:04.239Z,83.60
2023-01-08T00:36:11.652Z,82.90
2023-01-08T00:39:13.573Z,84.60
2023-01-08T00:42:15.484Z,83.80
2023-01-08T00:45:17.351Z,84.10
2023-01-08T00:48:20.005Z,83.30
2023-01-08T00:51:21.855Z,82.50
2023-01-08T00:54:23.698Z,82.30
2023-01-08T00:57:25.539Z,82.10
2023-01-08T01:00:27.518Z,81.60
2023-01-08T01:03:29.361Z,82.00
2023-01-08T01:06:31.279Z,82.00
2023-01-08T01:09:33.136Z,82.10
2023-01-08T01:12:36.774Z,81.90
2023-01-08T01:15:38.779Z,81.40
2023-01-08T01:18:41.072Z,80.70
2023-01-08T01:21:43.693Z,81.00
2023-01-08T01:24:45.664Z,81.00
2023-01-08T01:27:47.617Z,81.50
2023-01-08T01:30:56.956Z,80.00
2023-01-08T01:33:59.500Z,80.90
2023-01-08T01:37:01.383Z,80.20
2023-01-08T01:40:06.266Z,81.00
2023-01-08T01:43:13.669Z,79.90
2023-01-08T01:46:22.418Z,81.00
2023-01-08T01:49:24.249Z,80.80
2023-01-08T01:52:28.753Z,81.30
2023-01-08T01:55:31.669Z,80.60
2023-01-08T01:58:34.094Z,80.20
2023-01-08T02:01:36.596Z,80.80
2023-01-08T02:04:38.576Z,80.50
2023-01-08T02:07:50.059Z,81.30
2023-01-08T02:10:57.640Z,82.50
2023-01-08T02:14:14.223Z,81.90
2023-01-08T02:17:20.961Z,82.80
2023-01-08T02:21:02.974Z,83.50
2023-01-08T02:24:23.399Z,83.50
2023-01-08T02:27:29.283Z,83.70
2023-01-08T02:30:31.387Z,84.00
2023-01-08T02:33:33.848Z,83.90
2023-01-08T02:36:46.224Z,84.20
2023-01-08T02:40:09.628Z,84.20
2023-01-08T02:43:17.805Z,84.30
2023-01-08T02:46:26.363Z,83.80
2023-01-08T02:49:32.238Z,84.40
2023-01-08T02:52:36.891Z,84.30
2023-01-08T02:55:42.208Z,84.50
2023-01-08T02:58:45.508Z,84.80
2023-01-08T03:01:47.949Z,85.30
2023-01-08T03:04:55.109Z,85.00
2023-01-08T03:07:57.056Z,85.00
2023-01-08T03:11:08.477Z,84.80
2023-01-08T03:14:25.374Z,84.90
2023-01-08T03:17:33.031Z,85.00
2023-01-08T03:20:38.149Z,85.00
2023-01-08T03:23:42.723Z,85.50
2023-01-08T03:26:49.098Z,85.10
2023-01-08T03:29:55.907Z,85.80
2023-01-08T03:33:00.851Z,86.20
2023-01-08T03:36:05.412Z,85.80
2023-01-08T03:39:14.326Z,85.60
2023-01-08T03:42:19.663Z,86.00
2023-01-08T03:45:23.845Z,85.50
2023-01-08T03:48:28.546Z,85.70
2023-01-08T03:51:40.168Z,85.70
2023-01-08T03:54:42.026Z,85.70
2023-01-08T03:57:43.976Z,85.70
2023-01-08T04:00:45.822Z,85.00
2023-01-08T04:03:49.402Z,85.80
2023-01-08T04:06:52.983Z,85.60
2023-01-08T04:09:54.853Z,85.30
2023-01-08T04:12:56.721Z,85.70
2023-01-08T04:15:58.675Z,85.30
2023-01-08T04:19:00.615Z,85.10
2023-01-08T04:22:02.483Z,85.90
2023-01-08T04:25:04.849Z,86.50
2023-01-08T04:28:07.088Z,87.10
2023-01-08T04:31:10.733Z,87.60
2023-01-08T04:34:12.795Z,88.10
2023-01-08T04:37:14.713Z,88.00
2023-01-08T04:40:18.813Z,88.20
2023-01-08T04:43:20.712Z,87.90
2023-01-08T04:46:22.578Z,87.60
2023-01-08T04:49:24.573Z,88.00
2023-01-08T04:52:29.365Z,87.70
2023-01-08T04:55:31.193Z,87.30
2023-01-08T04:58:36.942Z,87.30
2023-01-08T05:01:38.892Z,87.60
2023-01-08T05:04:40.876Z,87.80
2023-01-08T05:07:42.756Z,87.70
2023-01-08T05:10:44.698Z,88.00
2023-01-08T05:13:54.220Z,88.10
2023-01-08T05:16:58.570Z,88.40
2023-01-08T05:20:00.847Z,88.00
2023-01-08T05:23:02.855Z,87.50
2023-01-08T05:26:06.735Z,87.30
2023-01-08T05:29:10.312Z,87.10
2023-01-08T05:32:18.854Z,86.90
2023-01-08T05:35:20.685Z,87.20
2023-01-08T05:38:23.017Z,87.00
2023-01-08T05:41:24.957Z,86.90
2023-01-08T05:44:26.786Z,86.50
2023-01-08T05:47:32.808Z,86.80
2023-01-08T05:50:35.731Z,86.70
2023-01-08T05:53:37.664Z,86.30
2023-01-08T05:56:40.346Z,86.40
2023-01-08T05:59:42.112Z,86.20
2023-01-08T06:02:48.064Z,86.80
2023-01-08T06:05:50.169Z,86.10
2023-01-08T06:08:52.129Z,86.40
2023-01-08T06:11:53.992Z,86.20
2023-01-08T06:14:55.851Z,86.50
2023-01-08T06:17:57.681Z,86.70
2023-01-08T06:20:59.645Z,86.70
2023-01-08T06:24:01.494Z,86.80
2023-01-08T06:27:05.602Z,87.20
2023-01-08T06:30:09.658Z,87.50
2023-01-08T06:33:11.504Z,87.30
2023-01-08T06:36:13.491Z,87.20
2023-01-08T06:39:15.321Z,87.80
2023-01-08T06:42:17.169Z,87.50
2023-01-08T06:45:19.197Z,87.60
2023-01-08T06:48:23.240Z,87.80
2023-01-08T06:51:27.536Z,88.00
2023-01-08T06:54:29.553Z,87.80
2023-01-08T06:57:31.910Z,88.10
2023-01-08T07:00:34.188Z,88.10
2023-01-08T07:03:36.104Z,88.20
2023-01-08T07:06:38.074Z,88.90
2023-01-08T07:09:43.379Z,88.60
2023-01-08T07:12:45.259Z,88.70
2023-01-08T07:15:47.181Z,89.20
2023-01-08T07:18:49.167Z,89.10
2023-01-08T07:21:50.948Z,89.00
2023-01-08T07:24:53.266Z,89.00
2023-01-08T07:27:55.069Z,89.10
2023-01-08T07:30:57.354Z,89.40
2023-01-08T07:33:59.359Z,89.40
2023-01-08T07:37:01.696Z,89.40
2023-01-08T07:40:03.798Z,89.20
2023-01-08T07:43:05.645Z,89.60
2023-01-08T07:46:07.643Z,89.40
2023-01-08T07:49:12.695Z,89.60
2023-01-08T07:52:14.589Z,89.40
2023-01-08T07:55:16.583Z,89.60
2023-01-08T07:58:18.420Z,89.50
2023-01-08T08:01:20.476Z,89.60
2023-01-08T08:04:22.706Z,89.80
2023-01-08T08:07:24.629Z,89.90
2023-01-08T08:10:26.541Z,89.60
2023-01-08T08:13:30.057Z,89.80
2023-01-08T08:16:31.961Z,89.90
2023-01-08T08:19:33.887Z,89.80
2023-01-08T08:22:35.708Z,90.00
2023-01-08T08:25:37.755Z,90.30
2023-01-08T08:28:39.723Z,90.30
2023-01-08T08:31:41.598Z,90.20
2023-01-08T08:34:43.437Z,90.10
2023-01-08T08:37:45.293Z,90.10
2023-01-08T08:40:47.125Z,90.00
2023-01-08T08:43:48.974Z,89.40
2023-01-08T08:46:50.855Z,89.40
2023-01-08T08:49:52.826Z,88.90
2023-01-08T08:53:00.286Z,88.90
2023-01-08T08:56:02.193Z,88.80
2023-01-08T08:59:04.036Z,88.60
2023-01-08T09:02:07.181Z,89.30
2023-01-08T09:05:09.940Z,88.90
2023-01-08T09:08:12.885Z,89.20
2023-01-08T09:11:14.831Z,88.80
2023-01-08T09:14:16.724Z,88.70
2023-01-08T09:17:18.754Z,88.80
2023-01-08T09:20:20.886Z,88.90
2023-01-08T09:23:22.864Z,89.10
2023-01-08T09:26:24.785Z,88.70
2023-01-08T09:29:27.438Z,89.10
2023-01-08T09:32:29.250Z,88.30
2023-01-08T09:35:32.230Z,88.30
2023-01-08T09:38:34.084Z,88.00
2023-01-08T09:41:40.919Z,88.10
2023-01-08T09:44:47.547Z,88.10
2023-01-08T09:47:49.816Z,88.50
2023-01-08T09:50:51.973Z,88.40
2023-01-08T09:53:59.079Z,88.50
2023-01-08T09:57:01.301Z,87.80
2023-01-08T10:00:04.548Z,88.20
2023-01-08T10:03:12.268Z,87.70
2023-01-08T10:06:16.090Z,87.50
2023-01-08T10:09:23.068Z,87.10
2023-01-08T10:12:28.785Z,87.20
2023-01-08T10:15:30.633Z,86.90
2023-01-08T10:18:34.367Z,86.70
2023-01-08T10:21:41.603Z,87.00
2023-01-08T10:24:44.206Z,86.60
2023-01-08T10:27:53.214Z,86.30
2023-01-08T10:31:07.897Z,86.40
2023-01-08T10:34:10.802Z,85.60
2023-01-08T10:37:16.798Z,86.00
2023-01-08T10:40:38.280Z,85.20
2023-01-08T10:44:00.256Z,85.00
2023-01-08T10:47:02.461Z,85.90
2023-01-08T10:50:06.743Z,84.20
2023-01-08T10:53:24.831Z,83.60
2023-01-08T10:59:47.507Z,83.20
2023-01-08T11:02:49.551Z,82.40
2023-01-08T11:05:51.726Z,82.50
2023-01-08T11:08:56.755Z,82.90
2023-01-08T11:11:59.528Z,82.80
2023-01-08T11:15:01.823Z,79.10
2023-01-08T11:18:21.864Z,77.50
2023-01-08T11:21:27.278Z,76.70
2023-01-08T11:24:37.306Z,76.90
2023-01-08T11:27:46.722Z,75.10
2023-01-08T11:31:00.205Z,75.70
2023-01-08T11:34:12.352Z,73.90
2023-01-08T11:37:35.828Z,75.90
2023-01-08T11:40:56.584Z,75.50
2023-01-08T11:44:33.381Z,77.00
2023-01-08T11:47:50.071Z,77.90
2023-01-08T12:03:38.995Z,77.80
2023-01-08T12:06:47.121Z,77.20
2023-01-08T12:10:11.939Z,77.50
2023-01-08T12:13:28.612Z,77.80
2023-01-08T12:16:56.735Z,77.40
2023-01-08T12:20:16.043Z,76.70
2023-01-08T12:23:27.401Z,78.00
2023-01-08T12:26:53.193Z,77.70
2023-01-08T12:30:18.191Z,76.90
2023-01-08T12:33:23.191Z,77.10
2023-01-08T12:36:39.989Z,77.00
2023-01-08T12:39:51.822Z,77.40
2023-01-08T12:43:01.158Z,77.20
2023-01-08T12:46:06.052Z,77.40
2023-01-08T12:49:10.957Z,76.90
2023-01-08T12:52:20.406Z,77.00
2023-01-08T12:55:40.344Z,76.30
2023-01-08T12:58:50.963Z,76.30
2023-01-08T13:02:34.252Z,76.40
2023-01-08T13:05:37.814Z,76.80
2023-01-08T13:08:41.569Z,77.60
2023-01-08T13:11:53.180Z,77.10
2023-01-08T13:14:55.593Z,78.00
2023-01-08T13:18:17.521Z,76.90
2023-01-08T13:21:38.893Z,77.70
2023-01-08T13:24:47.366Z,76.90
2023-01-08T13:31:28.996Z,77.10
2023-01-08T13:34:38.783Z,76.20
2023-01-08T13:37:50.063Z,76.90
2023-01-08T13:40:54.125Z,77.10
2023-01-08T13:44:19.353Z,76.60
2023-01-08T13:47:34.704Z,77.20
2023-01-08T13:50:38.907Z,76.80
2023-01-08T13:53:42.532Z,76.70
2023-01-08T13:56:46.776Z,75.60
2023-01-08T13:59:56.177Z,76.30
2023-01-08T14:02:58.122Z,76.50
2023-01-08T14:06:13.227Z,75.90
2023-01-08T14:09:24.256Z,75.40
2023-01-08T14:12:27.841Z,75.70
2023-01-08T14:15:29.736Z,75.80
2023-01-08T14:18:32.119Z,75.90
2023-01-08T14:21:38.795Z,76.10
2023-01-08T14:24:44.314Z,77.20
2023-01-08T14:27:56.122Z,76.40
2023-01-08T14:30:58.413Z,76.50
2023-01-08T14:34:00.732Z,77.00
2023-01-08T14:37:02.658Z,77.30
2023-01-08T14:40:14.221Z,77.20
2023-01-08T14:43:18.180Z,76.70
2023-01-08T14:46:24.930Z,77.50
2023-01-08T14:49:35.659Z,77.40
2023-01-08T14:52:41.085Z,77.60
2023-01-08T14:55:46.669Z,78.10
2023-01-08T14:58:49.229Z,78.50
2023-01-08T15:02:01.218Z,78.10
2023-01-08T15:05:23.594Z,78.30
2023-01-08T15:08:37.281Z,78.60
2023-01-08T15:11:59.056Z,79.10
2023-01-08T15:15:25.101Z,78.50
2023-01-08T15:18:29.806Z,78.60
2023-01-08T15:21:32.317Z,78.20
2023-01-08T15:24:35.593Z,78.80
2023-01-08T15:27:37.619Z,78.30
2023-01-08T15:30:44.710Z,78.60
2023-01-08T15:33:46.575Z,78.60
2023-01-08T15:36:49.033Z,79.10
2023-01-08T15:39:50.965Z,78.90
2023-01-08T15:42:52.833Z,78.90
2023-01-08T15:45:54.729Z,79.30
2023-01-08T15:48:56.690Z,79.20
2023-01-08T15:55:19.857Z,79.10
2023-01-08T15:58:21.808Z,79.30
2023-01-08T16:01:23.956Z,79.30
2023-01-08T16:04:25.875Z,79.70
2023-01-08T16:10:35.702Z,79.90
2023-01-08T16:13:37.790Z,79.70
2023-01-08T16:16:39.675Z,79.30
2023-01-08T16:19:41.541Z,79.00
2023-01-08T16:22:43.414Z,78.90
2023-01-08T16:25:45.294Z,78.90
2023-01-08T16:28:49.360Z,78.90
2023-01-08T16:31:51.355Z,79.20
2023-01-08T16:34:53.270Z,78.60
2023-01-08T16:37:55.159Z,78.60
2023-01-08T16:40:57.687Z,78.60
2023-01-08T16:44:05.593Z,78.60
2023-01-08T16:47:07.423Z,78.90
2023-01-08T16:50:11.061Z,79.30
2023-01-08T16:53:13.186Z,79.40
2023-01-08T16:56:15.027Z,79.40
2023-01-08T16:59:23.338Z,79.10
2023-01-08T17:02:26.065Z,79.50
2023-01-08T17:05:28.781Z,79.70
2023-01-08T17:08:37.139Z,79.60
2023-01-08T17:11:45.812Z,80.00
2023-01-08T17:14:48.513Z,79.60
2023-01-08T17:17:50.395Z,79.20
2023-01-08T17:20:55.342Z,79.00
2023-01-08T17:23:57.216Z,79.00
2023-01-08T17:26:59.089Z,79.30
2023-01-08T17:30:01.256Z,79.20
2023-01-08T17:33:03.265Z,79.60
2023-01-08T17:36:15.133Z,80.40
2023-01-08T17:39:16.970Z,80.70
2023-01-08T17:42:25.704Z,81.40
2023-01-08T17:45:33.885Z,82.10
2023-01-08T17:48:35.767Z,82.40
2023-01-08T17:51:37.652Z,82.60
2023-01-08T17:54:39.487Z,82.90
2023-01-08T17:57:41.355Z,83.00
2023-01-08T18:00:43.201Z,82.60
2023-01-08T18:03:45.579Z,82.40
2023-01-08T18:06:47.451Z,82.50
2023-01-08T18:09:49.378Z,82.50
2023-01-08T18:12:51.251Z,82.90
2023-01-08T18:16:07.902Z,82.90
2023-01-08T18:19:09.830Z,83.70
2023-01-08T18:22:17.697Z,84.30
2023-01-08T18:25:19.730Z,83.90
2023-01-08T18:28:21.906Z,83.70
2023-01-08T18:31:24.071Z,83.60
2023-01-08T18:34:26.252Z,83.50
2023-01-08T18:37:28.111Z,83.10
2023-01-08T18:40:36.919Z,82.60
2023-01-08T18:43:38.826Z,82.10
2023-01-08T18:46:40.671Z,82.70
2023-01-08T18:49:42.541Z,81.80
2023-01-08T18:52:44.376Z,81.60
2023-01-08T18:55:46.301Z,81.40
2023-01-08T18:58:54.987Z,81.30
2023-01-08T19:01:56.993Z,81.00
2023-01-08T19:04:58.954Z,80.80
2023-01-08T19:08:01.044Z,80.70
2023-01-08T19:11:06.706Z,81.00
2023-01-08T19:14:10.763Z,80.80
2023-01-08T19:17:12.683Z,80.70
2023-01-08T19:20:14.594Z,80.80
2023-01-08T19:23:16.568Z,80.80
2023-01-08T19:26:18.913Z,80.90
2023-01-08T19:29:20.868Z,81.00
2023-01-08T19:32:22.946Z,80.80
2023-01-08T19:35:24.811Z,80.90
2023-01-08T19:38:26.644Z,80.80
2023-01-08T19:41:28.492Z,80.60
2023-01-08T19:44:36.745Z,80.50
2023-01-08T19:47:44.961Z,80.80
2023-01-08T19:50:46.993Z,81.00
2023-01-08T19:53:49.213Z,81.20
2023-01-08T19:56:54.871Z,81.80
2023-01-08T19:59:56.970Z,82.10
2023-01-08T20:02:58.855Z,82.50
2023-01-08T20:06:04.492Z,83.10
2023-01-08T20:09:06.501Z,83.20
2023-01-08T20:12:08.863Z,83.10
2023-01-08T20:15:10.743Z,83.40
2023-01-08T20:18:12.630Z,83.50
2023-01-08T20:21:17.648Z,84.10
2023-01-08T20:24:22.006Z,84.20
2023-01-08T20:27:23.825Z,84.00
2023-01-08T20:30:25.731Z,84.50
2023-01-08T20:33:27.663Z,84.80
2023-01-08T20:36:32.634Z,85.60
2023-01-08T20:39:34.640Z,85.30
2023-01-08T20:42:36.444Z,85.80
2023-01-08T20:45:41.004Z,85.70
2023-01-08T20:48:47.623Z,85.80
2023-01-08T20:51:58.387Z,86.00
2023-01-08T20:55:00.676Z,85.70
2023-01-08T20:58:05.162Z,86.00
2023-01-08T21:01:09.475Z,86.30
2023-01-08T21:04:13.371Z,87.20
2023-01-08T21:07:15.221Z,87.40
2023-01-08T21:10:17.266Z,87.70
2023-01-08T21:13:28.243Z,87.50
2023-01-08T21:16:31.476Z,87.90
2023-01-08T21:19:33.483Z,87.60
2023-01-08T21:22:42.370Z,87.90
2023-01-08T21:25:44.381Z,87.90
2023-01-08T21:28:47.834Z,87.80
2023-01-08T21:31:49.720Z,87.50
2023-01-08T21:34:54.208Z,87.60
2023-01-08T21:37:56.162Z,87.60
2023-01-08T21:41:10.924Z,88.00
2023-01-08T21:44:15.744Z,88.00
2023-01-08T21:47:18.360Z,88.20
2023-01-08T21:50:20.510Z,87.90
2023-01-08T21:53:22.807Z,88.20
2023-01-08T21:56:24.949Z,88.20
2023-01-08T21:59:26.820Z,88.40
2023-01-08T22:02:28.707Z,88.70
2023-01-08T22:05:30.652Z,89.10
2023-01-08T22:08:33.289Z,89.00
2023-01-08T22:11:35.318Z,88.50
2023-01-08T22:14:37.365Z,88.70
2023-01-08T22:17:39.224Z,88.80
2023-01-08T22:20:43.326Z,88.50
2023-01-08T22:23:45.258Z,88.20
2023-01-08T22:26:47.089Z,88.50
2023-01-08T22:29:49.008Z,88.60
2023-01-08T22:32:50.904Z,88.60
2023-01-08T22:35:57.135Z,88.90
2023-01-08T22:38:59.167Z,88.70
2023-01-08T22:42:01.654Z,88.60
2023-01-08T22:45:03.884Z,88.60
2023-01-08T22:48:05.990Z,88.60
2023-01-08T22:51:07.948Z,88.20
2023-01-08T22:54:13.150Z,88.20
2023-01-08T22:57:14.996Z,88.20
2023-01-08T23:00:17.442Z,88.50
2023-01-08T23:03:28.764Z,88.50
2023-01-08T23:06:31.829Z,88.60
2023-01-08T23:09:33.967Z,88.80
2023-01-08T23:12:35.791Z,88.80
2023-01-08T23:15:37.670Z,89.10
2023-01-08T23:18:40.165Z,88.90
2023-01-08T23:21:42.007Z,88.70
2023-01-08T23:24:43.884Z,88.70
2023-01-08T23:27:45.782Z,88.50
2023-01-08T23:30:47.604Z,88.40
2023-01-08T23:33:50.564Z,88.90
2023-01-08T23:36:53.048Z,88.70
2023-01-08T23:39:54.902Z,88.90
2023-01-08T23:42:56.786Z,88.90
2023-01-08T23:46:03.107Z,88.90
2023-01-08T23:49:05.784Z,89.10
2023-01-08T23:52:07.513Z,89.30
2023-01-08T23:55:09.820Z,89.40
2023-01-08T23:58:14.281Z,89.60
